sensor_id;sensor_type;location;lat;lon;timestamp;P1;durP1;ratioP1;P2;durP2;ratioP2
40595;SDS011;26304;48.794;9.820;2022-12-07T00:01:59;3.35;;;3.15;;
40595;SDS011;26304;48.794;9.820;2022-12-07T00:07:42;3.13;;;2.92;;
40595;SDS011;26304;48.794;9.820;2022-12-07T00:13:24;3.30;;;3.10;;
40595;SDS011;26304;48.794;9.820;2022-12-07T00:19:09;3.70;;;3.40;;
40595;SDS011;26304;48.794;9.820;2022-12-07T00:24:53;3.83;;;3.63;;
40595;SDS011;26304;48.794;9.820;2022-12-07T00:30:35;3.50;;;3.30;;
40595;SDS011;26304;48.794;9.820;2022-12-07T00:36:19;3.83;;;3.58;;
40595;SDS011;26304;48.794;9.820;2022-12-07T00:42:03;3.45;;;3.25;;
40595;SDS011;26304;48.794;9.820;2022-12-07T00:47:46;3.78;;;3.47;;
40595;SDS011;26304;48.794;9.820;2022-12-07T00:53:30;3.45;;;3.15;;
40595;SDS011;26304;48.794;9.820;2022-12-07T00:59:15;3.42;;;3.22;;
40595;SDS011;26304;48.794;9.820;2022-12-07T01:04:57;3.33;;;3.10;;
40595;SDS011;26304;48.794;9.820;2022-12-07T01:10:41;3.60;;;3.40;;
40595;SDS011;26304;48.794;9.820;2022-12-07T01:16:24;3.88;;;3.58;;
40595;SDS011;26304;48.794;9.820;2022-12-07T01:22:09;3.25;;;3.05;;
40595;SDS011;26304;48.794;9.820;2022-12-07T01:27:53;3.22;;;3.03;;
40595;SDS011;26304;48.794;9.820;2022-12-07T01:33:35;3.38;;;3.17;;
40595;SDS011;26304;48.794;9.820;2022-12-07T01:39:18;3.10;;;2.90;;
40595;SDS011;26304;48.794;9.820;2022-12-07T01:51:18;3.45;;;3.25;;
40595;SDS011;26304;48.794;9.820;2022-12-07T01:57:01;3.80;;;3.50;;
40595;SDS011;26304;48.794;9.820;2022-12-07T02:02:49;3.70;;;3.50;;
40595;SDS011;26304;48.794;9.820;2022-12-07T02:08:35;3.67;;;3.42;;
40595;SDS011;26304;48.794;9.820;2022-12-07T02:14:18;3.70;;;3.50;;
40595;SDS011;26304;48.794;9.820;2022-12-07T02:20:06;3.47;;;3.28;;
40595;SDS011;26304;48.794;9.820;2022-12-07T02:32:23;4.07;;;3.78;;
40595;SDS011;26304;48.794;9.820;2022-12-07T02:38:11;5.38;;;4.05;;
40595;SDS011;26304;48.794;9.820;2022-12-07T02:43:58;3.58;;;3.38;;
40595;SDS011;26304;48.794;9.820;2022-12-07T02:49:45;4.03;;;3.72;;
40595;SDS011;26304;48.794;9.820;2022-12-07T02:55:29;4.20;;;3.90;;
40595;SDS011;26304;48.794;9.820;2022-12-07T03:01:20;4.05;;;3.75;;
40595;SDS011;26304;48.794;9.820;2022-12-07T03:07:14;4.00;;;3.70;;
40595;SDS011;26304;48.794;9.820;2022-12-07T03:13:04;4.32;;;4.03;;
40595;SDS011;26304;48.794;9.820;2022-12-07T03:18:53;4.40;;;4.07;;
40595;SDS011;26304;48.794;9.820;2022-12-07T03:24:40;3.47;;;3.28;;
40595;SDS011;26304;48.794;9.820;2022-12-07T03:30:27;4.03;;;3.72;;
40595;SDS011;26304;48.794;9.820;2022-12-07T03:36:15;3.95;;;3.65;;
40595;SDS011;26304;48.794;9.820;2022-12-07T03:42:03;4.32;;;4.03;;
40595;SDS011;26304;48.794;9.820;2022-12-07T03:47:49;3.90;;;3.60;;
40595;SDS011;26304;48.794;9.820;2022-12-07T03:53:40;4.38;;;4.00;;
40595;SDS011;26304;48.794;9.820;2022-12-07T03:59:29;3.95;;;3.65;;
40595;SDS011;26304;48.794;9.820;2022-12-07T04:05:12;4.00;;;3.70;;
40595;SDS011;26304;48.794;9.820;2022-12-07T04:10:55;4.10;;;3.80;;
40595;SDS011;26304;48.794;9.820;2022-12-07T04:16:38;4.50;;;4.18;;
40595;SDS011;26304;48.794;9.820;2022-12-07T04:22:21;4.50;;;4.20;;
40595;SDS011;26304;48.794;9.820;2022-12-07T04:28:03;4.45;;;4.05;;
40595;SDS011;26304;48.794;9.820;2022-12-07T04:33:47;4.57;;;4.28;;
40595;SDS011;26304;48.794;9.820;2022-12-07T04:39:31;4.50;;;4.20;;
40595;SDS011;26304;48.794;9.820;2022-12-07T04:45:14;4.33;;;4.03;;
40595;SDS011;26304;48.794;9.820;2022-12-07T04:50:58;4.53;;;4.22;;
40595;SDS011;26304;48.794;9.820;2022-12-07T04:56:41;4.50;;;4.10;;
40595;SDS011;26304;48.794;9.820;2022-12-07T05:02:24;5.00;;;4.60;;
40595;SDS011;26304;48.794;9.820;2022-12-07T05:08:08;4.40;;;4.00;;
40595;SDS011;26304;48.794;9.820;2022-12-07T05:13:50;4.50;;;4.20;;
40595;SDS011;26304;48.794;9.820;2022-12-07T05:19:32;4.40;;;4.07;;
40595;SDS011;26304;48.794;9.820;2022-12-07T05:25:16;4.10;;;3.80;;
40595;SDS011;26304;48.794;9.820;2022-12-07T05:30:58;5.63;;;5.03;;
40595;SDS011;26304;48.794;9.820;2022-12-07T05:36:41;4.85;;;4.45;;
40595;SDS011;26304;48.794;9.820;2022-12-07T05:42:25;3.95;;;3.65;;
40595;SDS011;26304;48.794;9.820;2022-12-07T05:48:07;4.07;;;3.67;;
40595;SDS011;26304;48.794;9.820;2022-12-07T05:53:50;3.53;;;3.22;;
40595;SDS011;26304;48.794;9.820;2022-12-07T05:59:34;4.22;;;3.08;;
40595;SDS011;26304;48.794;9.820;2022-12-07T06:05:17;5.15;;;3.63;;
40595;SDS011;26304;48.794;9.820;2022-12-07T06:10:59;4.65;;;3.50;;
40595;SDS011;26304;48.794;9.820;2022-12-07T06:16:57;3.22;;;2.92;;
40595;SDS011;26304;48.794;9.820;2022-12-07T06:22:39;3.85;;;2.83;;
40595;SDS011;26304;48.794;9.820;2022-12-07T06:28:22;2.72;;;2.53;;
40595;SDS011;26304;48.794;9.820;2022-12-07T06:34:06;3.60;;;3.00;;
40595;SDS011;26304;48.794;9.820;2022-12-07T06:39:51;3.38;;;2.72;;
40595;SDS011;26304;48.794;9.820;2022-12-07T06:45:33;3.17;;;2.88;;
40595;SDS011;26304;48.794;9.820;2022-12-07T06:51:17;3.00;;;2.75;;
40595;SDS011;26304;48.794;9.820;2022-12-07T06:57:00;3.78;;;2.85;;
40595;SDS011;26304;48.794;9.820;2022-12-07T07:02:42;3.40;;;3.10;;
40595;SDS011;26304;48.794;9.820;2022-12-07T07:08:26;3.25;;;2.95;;
40595;SDS011;26304;48.794;9.820;2022-12-07T07:14:08;3.05;;;2.75;;
40595;SDS011;26304;48.794;9.820;2022-12-07T07:19:50;4.72;;;2.97;;
40595;SDS011;26304;48.794;9.820;2022-12-07T07:25:34;4.45;;;2.95;;
40595;SDS011;26304;48.794;9.820;2022-12-07T07:31:17;2.70;;;2.50;;
40595;SDS011;26304;48.794;9.820;2022-12-07T07:36:59;5.40;;;2.85;;
40595;SDS011;26304;48.794;9.820;2022-12-07T07:42:46;3.75;;;2.97;;
40595;SDS011;26304;48.794;9.820;2022-12-07T07:48:29;4.15;;;2.80;;
40595;SDS011;26304;48.794;9.820;2022-12-07T07:54:11;3.45;;;2.70;;
40595;SDS011;26304;48.794;9.820;2022-12-07T07:59:55;4.60;;;2.92;;
40595;SDS011;26304;48.794;9.820;2022-12-07T08:05:38;2.80;;;2.55;;
40595;SDS011;26304;48.794;9.820;2022-12-07T08:11:20;4.13;;;2.60;;
40595;SDS011;26304;48.794;9.820;2022-12-07T08:17:04;7.72;;;7.03;;
40595;SDS011;26304;48.794;9.820;2022-12-07T08:22:46;8.45;;;7.75;;
40595;SDS011;26304;48.794;9.820;2022-12-07T08:28:29;11.05;;;8.98;;
40595;SDS011;26304;48.794;9.820;2022-12-07T08:34:13;8.82;;;7.93;;
40595;SDS011;26304;48.794;9.820;2022-12-07T08:39:56;8.07;;;6.80;;
40595;SDS011;26304;48.794;9.820;2022-12-07T08:45:38;6.80;;;6.20;;
40595;SDS011;26304;48.794;9.820;2022-12-07T08:51:23;5.28;;;4.85;;
40595;SDS011;26304;48.794;9.820;2022-12-07T08:57:06;7.78;;;5.38;;
40595;SDS011;26304;48.794;9.820;2022-12-07T09:02:50;4.97;;;4.53;;
40595;SDS011;26304;48.794;9.820;2022-12-07T09:08:34;5.35;;;4.00;;
40595;SDS011;26304;48.794;9.820;2022-12-07T09:14:20;4.68;;;3.58;;
40595;SDS011;26304;48.794;9.820;2022-12-07T09:20:03;4.60;;;4.07;;
40595;SDS011;26304;48.794;9.820;2022-12-07T09:25:48;9.05;;;4.45;;
40595;SDS011;26304;48.794;9.820;2022-12-07T09:31:30;7.63;;;4.80;;
40595;SDS011;26304;48.794;9.820;2022-12-07T09:37:13;6.30;;;4.65;;
40595;SDS011;26304;48.794;9.820;2022-12-07T09:42:56;6.50;;;4.90;;
40595;SDS011;26304;48.794;9.820;2022-12-07T09:48:39;10.15;;;5.32;;
40595;SDS011;26304;48.794;9.820;2022-12-07T09:54:24;8.05;;;6.13;;
40595;SDS011;26304;48.794;9.820;2022-12-07T10:00:10;10.40;;;5.95;;
40595;SDS011;26304;48.794;9.820;2022-12-07T10:05:56;11.10;;;6.37;;
40595;SDS011;26304;48.794;9.820;2022-12-07T10:11:58;9.50;;;6.22;;
40595;SDS011;26304;48.794;9.820;2022-12-07T10:17:47;9.45;;;5.78;;
40595;SDS011;26304;48.794;9.820;2022-12-07T10:23:31;8.82;;;5.15;;
40595;SDS011;26304;48.794;9.820;2022-12-07T10:29:14;8.55;;;5.55;;
40595;SDS011;26304;48.794;9.820;2022-12-07T10:35:20;12.07;;;6.05;;
40595;SDS011;26304;48.794;9.820;2022-12-07T10:41:06;15.73;;;7.57;;
40595;SDS011;26304;48.794;9.820;2022-12-07T10:59:38;15.73;;;8.55;;
40595;SDS011;26304;48.794;9.820;2022-12-07T11:05:29;16.45;;;7.75;;
40595;SDS011;26304;48.794;9.820;2022-12-07T11:11:23;15.82;;;7.70;;
40595;SDS011;26304;48.794;9.820;2022-12-07T11:17:14;13.45;;;7.40;;
40595;SDS011;26304;48.794;9.820;2022-12-07T11:23:04;11.27;;;6.95;;
40595;SDS011;26304;48.794;9.820;2022-12-07T11:29:05;22.13;;;6.45;;
40595;SDS011;26304;48.794;9.820;2022-12-07T11:34:59;14.68;;;6.35;;
40595;SDS011;26304;48.794;9.820;2022-12-07T11:40:50;8.98;;;5.80;;
40595;SDS011;26304;48.794;9.820;2022-12-07T11:46:55;10.73;;;5.60;;
40595;SDS011;26304;48.794;9.820;2022-12-07T11:52:44;9.68;;;5.10;;
40595;SDS011;26304;48.794;9.820;2022-12-07T11:58:35;8.15;;;4.93;;
40595;SDS011;26304;48.794;9.820;2022-12-07T12:04:34;8.52;;;5.05;;
40595;SDS011;26304;48.794;9.820;2022-12-07T12:10:35;7.68;;;4.60;;
40595;SDS011;26304;48.794;9.820;2022-12-07T12:22:52;11.65;;;5.15;;
40595;SDS011;26304;48.794;9.820;2022-12-07T12:28:39;8.18;;;4.57;;
40595;SDS011;26304;48.794;9.820;2022-12-07T12:34:33;9.63;;;4.57;;
40595;SDS011;26304;48.794;9.820;2022-12-07T12:58:43;8.77;;;4.05;;
40595;SDS011;26304;48.794;9.820;2022-12-07T13:04:49;5.65;;;3.85;;
40595;SDS011;26304;48.794;9.820;2022-12-07T13:10:35;6.72;;;4.13;;
40595;SDS011;26304;48.794;9.820;2022-12-07T13:22:35;7.40;;;4.75;;
40595;SDS011;26304;48.794;9.820;2022-12-07T13:28:25;9.88;;;3.63;;
40595;SDS011;26304;48.794;9.820;2022-12-07T13:34:28;10.00;;;3.80;;
40595;SDS011;26304;48.794;9.820;2022-12-07T13:40:16;10.35;;;3.97;;
40595;SDS011;26304;48.794;9.820;2022-12-07T13:46:01;7.47;;;3.38;;
40595;SDS011;26304;48.794;9.820;2022-12-07T13:51:45;8.38;;;4.00;;
40595;SDS011;26304;48.794;9.820;2022-12-07T13:57:28;7.10;;;3.35;;
40595;SDS011;26304;48.794;9.820;2022-12-07T14:03:29;4.95;;;3.22;;
40595;SDS011;26304;48.794;9.820;2022-12-07T14:09:18;5.78;;;3.00;;
40595;SDS011;26304;48.794;9.820;2022-12-07T14:15:03;5.88;;;2.65;;
40595;SDS011;26304;48.794;9.820;2022-12-07T14:20:46;6.30;;;2.50;;
40595;SDS011;26304;48.794;9.820;2022-12-07T14:26:30;7.43;;;2.60;;
40595;SDS011;26304;48.794;9.820;2022-12-07T14:32:22;7.68;;;2.75;;
40595;SDS011;26304;48.794;9.820;2022-12-07T14:38:09;8.70;;;2.70;;
40595;SDS011;26304;48.794;9.820;2022-12-07T14:43:53;7.28;;;2.63;;
40595;SDS011;26304;48.794;9.820;2022-12-07T14:49:35;2.75;;;2.20;;
40595;SDS011;26304;48.794;9.820;2022-12-07T14:55:20;3.47;;;2.15;;
40595;SDS011;26304;48.794;9.820;2022-12-07T15:01:07;2.50;;;2.05;;
40595;SDS011;26304;48.794;9.820;2022-12-07T15:06:56;2.92;;;2.40;;
40595;SDS011;26304;48.794;9.820;2022-12-07T15:12:39;3.22;;;2.28;;
40595;SDS011;26304;48.794;9.820;2022-12-07T15:18:23;2.83;;;2.60;;
40595;SDS011;26304;48.794;9.820;2022-12-07T15:24:06;2.85;;;2.47;;
40595;SDS011;26304;48.794;9.820;2022-12-07T15:29:49;3.05;;;2.40;;
40595;SDS011;26304;48.794;9.820;2022-12-07T15:35:33;2.53;;;2.30;;
40595;SDS011;26304;48.794;9.820;2022-12-07T15:41:20;3.10;;;2.60;;
40595;SDS011;26304;48.794;9.820;2022-12-07T15:47:03;2.63;;;2.13;;
40595;SDS011;26304;48.794;9.820;2022-12-07T15:52:47;2.30;;;2.10;;
40595;SDS011;26304;48.794;9.820;2022-12-07T15:58:30;2.45;;;2.30;;
40595;SDS011;26304;48.794;9.820;2022-12-07T16:04:13;2.50;;;2.30;;
40595;SDS011;26304;48.794;9.820;2022-12-07T16:09:56;2.47;;;2.28;;
40595;SDS011;26304;48.794;9.820;2022-12-07T16:15:39;2.53;;;2.33;;
40595;SDS011;26304;48.794;9.820;2022-12-07T16:21:21;3.10;;;2.80;;
40595;SDS011;26304;48.794;9.820;2022-12-07T16:27:05;2.92;;;2.65;;
40595;SDS011;26304;48.794;9.820;2022-12-07T16:32:48;2.92;;;2.72;;
40595;SDS011;26304;48.794;9.820;2022-12-07T16:38:30;2.72;;;2.53;;
40595;SDS011;26304;48.794;9.820;2022-12-07T16:44:14;4.10;;;3.03;;
40595;SDS011;26304;48.794;9.820;2022-12-07T16:49:56;3.00;;;2.60;;
40595;SDS011;26304;48.794;9.820;2022-12-07T16:55:39;3.13;;;2.92;;
40595;SDS011;26304;48.794;9.820;2022-12-07T17:01:24;2.60;;;2.40;;
40595;SDS011;26304;48.794;9.820;2022-12-07T17:07:08;3.13;;;2.67;;
40595;SDS011;26304;48.794;9.820;2022-12-07T17:12:51;3.03;;;2.83;;
40595;SDS011;26304;48.794;9.820;2022-12-07T17:18:35;3.08;;;2.88;;
40595;SDS011;26304;48.794;9.820;2022-12-07T17:24:18;3.53;;;3.22;;
40595;SDS011;26304;48.794;9.820;2022-12-07T17:30:00;2.88;;;2.67;;
40595;SDS011;26304;48.794;9.820;2022-12-07T17:35:45;4.80;;;2.80;;
40595;SDS011;26304;48.794;9.820;2022-12-07T17:41:29;3.30;;;2.70;;
40595;SDS011;26304;48.794;9.820;2022-12-07T17:47:29;2.75;;;2.55;;
40595;SDS011;26304;48.794;9.820;2022-12-07T17:53:12;3.17;;;2.88;;
40595;SDS011;26304;48.794;9.820;2022-12-07T17:58:55;2.80;;;2.60;;
40595;SDS011;26304;48.794;9.820;2022-12-07T18:04:40;3.33;;;2.92;;
40595;SDS011;26304;48.794;9.820;2022-12-07T18:10:24;3.20;;;2.90;;
40595;SDS011;26304;48.794;9.820;2022-12-07T18:16:07;2.67;;;2.47;;
40595;SDS011;26304;48.794;9.820;2022-12-07T18:21:51;4.60;;;3.63;;
40595;SDS011;26304;48.794;9.820;2022-12-07T18:27:34;3.97;;;3.55;;
40595;SDS011;26304;48.794;9.820;2022-12-07T18:33:17;4.85;;;4.45;;
40595;SDS011;26304;48.794;9.820;2022-12-07T18:39:00;5.00;;;4.60;;
40595;SDS011;26304;48.794;9.820;2022-12-07T18:44:46;4.88;;;4.25;;
40595;SDS011;26304;48.794;9.820;2022-12-07T18:50:29;4.65;;;4.28;;
40595;SDS011;26304;48.794;9.820;2022-12-07T18:56:12;5.38;;;4.88;;
40595;SDS011;26304;48.794;9.820;2022-12-07T19:01:58;6.05;;;5.45;;
40595;SDS011;26304;48.794;9.820;2022-12-07T19:07:41;4.90;;;4.47;;
40595;SDS011;26304;48.794;9.820;2022-12-07T19:13:24;5.47;;;4.35;;
40595;SDS011;26304;48.794;9.820;2022-12-07T19:19:08;5.30;;;4.55;;
40595;SDS011;26304;48.794;9.820;2022-12-07T19:24:51;5.35;;;4.85;;
40595;SDS011;26304;48.794;9.820;2022-12-07T19:30:34;6.30;;;5.05;;
40595;SDS011;26304;48.794;9.820;2022-12-07T19:36:18;5.93;;;5.35;;
40595;SDS011;26304;48.794;9.820;2022-12-07T19:42:00;7.18;;;5.10;;
40595;SDS011;26304;48.794;9.820;2022-12-07T19:47:42;5.90;;;5.30;;
40595;SDS011;26304;48.794;9.820;2022-12-07T19:53:26;7.18;;;6.47;;
40595;SDS011;26304;48.794;9.820;2022-12-07T19:59:09;12.45;;;10.02;;
40595;SDS011;26304;48.794;9.820;2022-12-07T20:04:52;13.80;;;12.45;;
40595;SDS011;26304;48.794;9.820;2022-12-07T20:10:37;12.38;;;11.27;;
40595;SDS011;26304;48.794;9.820;2022-12-07T20:16:20;11.25;;;10.30;;
40595;SDS011;26304;48.794;9.820;2022-12-07T20:22:03;12.10;;;11.10;;
40595;SDS011;26304;48.794;9.820;2022-12-07T20:27:47;10.75;;;9.85;;
40595;SDS011;26304;48.794;9.820;2022-12-07T20:33:30;10.32;;;9.43;;
40595;SDS011;26304;48.794;9.820;2022-12-07T20:39:12;10.25;;;9.05;;
40595;SDS011;26304;48.794;9.820;2022-12-07T20:44:56;9.05;;;8.25;;
40595;SDS011;26304;48.794;9.820;2022-12-07T20:50:39;9.07;;;8.27;;
40595;SDS011;26304;48.794;9.820;2022-12-07T20:56:22;8.25;;;7.55;;
40595;SDS011;26304;48.794;9.820;2022-12-07T21:02:10;7.65;;;6.95;;
40595;SDS011;26304;48.794;9.820;2022-12-07T21:07:53;8.13;;;7.40;;
40595;SDS011;26304;48.794;9.820;2022-12-07T21:13:36;7.40;;;6.72;;
40595;SDS011;26304;48.794;9.820;2022-12-07T21:19:20;7.00;;;6.40;;
40595;SDS011;26304;48.794;9.820;2022-12-07T21:25:02;7.28;;;6.57;;
40595;SDS011;26304;48.794;9.820;2022-12-07T21:30:46;6.95;;;6.35;;
40595;SDS011;26304;48.794;9.820;2022-12-07T21:36:29;6.80;;;6.20;;
40595;SDS011;26304;48.794;9.820;2022-12-07T21:42:12;7.00;;;6.40;;
40595;SDS011;26304;48.794;9.820;2022-12-07T21:47:54;7.18;;;6.57;;
40595;SDS011;26304;48.794;9.820;2022-12-07T21:53:39;7.25;;;6.55;;
40595;SDS011;26304;48.794;9.820;2022-12-07T21:59:23;6.85;;;6.25;;
40595;SDS011;26304;48.794;9.820;2022-12-07T22:05:05;7.50;;;6.80;;
40595;SDS011;26304;48.794;9.820;2022-12-07T22:10:50;7.13;;;6.43;;
40595;SDS011;26304;48.794;9.820;2022-12-07T22:16:32;7.83;;;7.03;;
40595;SDS011;26304;48.794;9.820;2022-12-07T22:22:15;8.70;;;7.10;;
40595;SDS011;26304;48.794;9.820;2022-12-07T22:27:59;6.65;;;6.05;;
40595;SDS011;26304;48.794;9.820;2022-12-07T22:33:42;7.03;;;6.45;;
40595;SDS011;26304;48.794;9.820;2022-12-07T22:39:24;7.10;;;6.50;;
40595;SDS011;26304;48.794;9.820;2022-12-07T22:45:08;7.65;;;6.95;;
40595;SDS011;26304;48.794;9.820;2022-12-07T22:50:51;7.32;;;6.65;;
40595;SDS011;26304;48.794;9.820;2022-12-07T22:56:35;7.05;;;6.40;;
40595;SDS011;26304;48.794;9.820;2022-12-07T23:02:20;7.03;;;6.50;;
40595;SDS011;26304;48.794;9.820;2022-12-07T23:08:02;6.63;;;6.03;;
40595;SDS011;26304;48.794;9.820;2022-12-07T23:13:45;6.28;;;5.78;;
40595;SDS011;26304;48.794;9.820;2022-12-07T23:19:29;6.28;;;5.70;;
40595;SDS011;26304;48.794;9.820;2022-12-07T23:25:11;6.60;;;6.07;;
40595;SDS011;26304;48.794;9.820;2022-12-07T23:30:59;6.35;;;5.85;;
40595;SDS011;26304;48.794;9.820;2022-12-07T23:36:44;5.97;;;5.47;;
40595;SDS011;26304;48.794;9.820;2022-12-07T23:42:26;5.80;;;5.40;;
40595;SDS011;26304;48.794;9.820;2022-12-07T23:48:09;6.75;;;6.15;;
40595;SDS011;26304;48.794;9.820;2022-12-07T23:53:53;6.57;;;5.93;;
40595;SDS011;26304;48.794;9.820;2022-12-07T23:59:36;6.20;;;5.70;;
